Alexandria Bay, New York
Current Conditions -  °F | °C
As of 12:58 PM on Monday 24 Nov 2014 (Local Time) from KGTB Reporting Station
Scattered Clouds Scattered Clouds  
Wind Chill: 67°   Ceiling: Unl
Heat Index: 67°   Visibility: 10mi
Dew Point: 52°   Wind: 21mph
Humidity: 59%   Direction: 200°SSW
Pressure: 29.3"   Gusts: 32mph
Location:  44.34°N, 75.92°W
Report Text: KGTB 241758Z AUTO 20018G28KT 10SM SCT060 19/11 A2930 RMK AO2 PK WND 20031/39 SLP922 T01920109 10193 21029 57025
Loading
Personal Weather Stations






























Interactive Weather Map New forecast layout! Learn more

10-Day Weather Forecast

Advertisements
Track Severe Weather on mobile